Nova Redencao, Brazil
Current Conditions -  °F | °C
As of 5:00 AM on Friday 24 Oct 2014 (Local Time) from SBQV Reporting Station
Drizzle Drizzle  
Wind Chill: 16°   Ceiling: 400
Heat Index: 16°   Visibility: 2.1mi
Dew Point: 16°   Wind: 8mph
Humidity: 100%   Direction: 130°SE
Pressure: 30.12"   Gusts: NA
Location:  12.82°S, 41.07°W
Report Text: SBQV 240800Z 13007KT 3500 -DZ BKN004 16/16 Q1020
Loading
Personal Weather Stations






























Interactive Weather Map
Tropical Storm Tracking
New forecast layout! Learn more

10-Day Weather Forecast

Advertisements
Track Severe Weather on mobile